sensor_id;sensor_type;location;lat;lon;timestamp;P1;durP1;ratioP1;P2;durP2;ratioP2
48627;SDS011;34424;52.234;6.500;2022-08-25T00:05:43;5.30;;;3.00;;
48627;SDS011;34424;52.234;6.500;2022-08-25T00:10:46;3.65;;;2.63;;
48627;SDS011;34424;52.234;6.500;2022-08-25T00:16:05;4.15;;;3.53;;
48627;SDS011;34424;52.234;6.500;2022-08-25T00:21:08;3.22;;;2.55;;
48627;SDS011;34424;52.234;6.500;2022-08-25T00:26:12;4.50;;;3.00;;
48627;SDS011;34424;52.234;6.500;2022-08-25T00:31:17;2.70;;;2.38;;
48627;SDS011;34424;52.234;6.500;2022-08-25T00:36:22;7.05;;;2.90;;
48627;SDS011;34424;52.234;6.500;2022-08-25T00:41:24;3.17;;;2.47;;
48627;SDS011;34424;52.234;6.500;2022-08-25T00:51:34;4.85;;;2.88;;
48627;SDS011;34424;52.234;6.500;2022-08-25T00:56:40;7.43;;;2.53;;
48627;SDS011;34424;52.234;6.500;2022-08-25T01:01:44;3.53;;;2.88;;
48627;SDS011;34424;52.234;6.500;2022-08-25T01:06:47;3.38;;;3.08;;
48627;SDS011;34424;52.234;6.500;2022-08-25T01:11:51;6.20;;;2.80;;
48627;SDS011;34424;52.234;6.500;2022-08-25T01:16:55;3.10;;;2.80;;
48627;SDS011;34424;52.234;6.500;2022-08-25T01:22:00;4.85;;;2.53;;
48627;SDS011;34424;52.234;6.500;2022-08-25T01:27:03;2.95;;;2.70;;
48627;SDS011;34424;52.234;6.500;2022-08-25T01:32:09;5.28;;;2.95;;
48627;SDS011;34424;52.234;6.500;2022-08-25T01:37:15;3.65;;;2.85;;
48627;SDS011;34424;52.234;6.500;2022-08-25T01:42:23;7.28;;;3.00;;
48627;SDS011;34424;52.234;6.500;2022-08-25T01:47:35;3.78;;;2.83;;
48627;SDS011;34424;52.234;6.500;2022-08-25T01:52:44;4.03;;;3.13;;
48627;SDS011;34424;52.234;6.500;2022-08-25T01:57:50;4.97;;;3.13;;
48627;SDS011;34424;52.234;6.500;2022-08-25T02:07:57;4.47;;;2.75;;
48627;SDS011;34424;52.234;6.500;2022-08-25T02:13:00;5.05;;;2.65;;
48627;SDS011;34424;52.234;6.500;2022-08-25T02:18:02;4.18;;;2.92;;
48627;SDS011;34424;52.234;6.500;2022-08-25T02:28:10;4.25;;;2.80;;
48627;SDS011;34424;52.234;6.500;2022-08-25T02:33:12;3.90;;;2.72;;
48627;SDS011;34424;52.234;6.500;2022-08-25T02:38:16;3.38;;;2.65;;
48627;SDS011;34424;52.234;6.500;2022-08-25T02:43:19;4.05;;;2.80;;
48627;SDS011;34424;52.234;6.500;2022-08-25T02:53:26;4.38;;;3.08;;
48627;SDS011;34424;52.234;6.500;2022-08-25T02:58:29;6.03;;;2.90;;
48627;SDS011;34424;52.234;6.500;2022-08-25T03:03:32;4.00;;;2.80;;
48627;SDS011;34424;52.234;6.500;2022-08-25T03:08:41;5.38;;;3.25;;
48627;SDS011;34424;52.234;6.500;2022-08-25T03:13:44;2.90;;;2.70;;
48627;SDS011;34424;52.234;6.500;2022-08-25T03:18:47;4.30;;;2.83;;
48627;SDS011;34424;52.234;6.500;2022-08-25T03:23:52;3.08;;;2.80;;
48627;SDS011;34424;52.234;6.500;2022-08-25T03:28:55;8.35;;;3.25;;
48627;SDS011;34424;52.234;6.500;2022-08-25T03:33:58;4.68;;;2.83;;
48627;SDS011;34424;52.234;6.500;2022-08-25T03:39:03;5.25;;;3.13;;
48627;SDS011;34424;52.234;6.500;2022-08-25T03:44:08;5.40;;;3.05;;
48627;SDS011;34424;52.234;6.500;2022-08-25T03:49:11;6.95;;;3.25;;
48627;SDS011;34424;52.234;6.500;2022-08-25T03:54:19;3.65;;;3.13;;
48627;SDS011;34424;52.234;6.500;2022-08-25T03:59:24;3.40;;;3.10;;
48627;SDS011;34424;52.234;6.500;2022-08-25T04:04:27;5.53;;;3.08;;
48627;SDS011;34424;52.234;6.500;2022-08-25T04:09:31;5.55;;;3.35;;
48627;SDS011;34424;52.234;6.500;2022-08-25T04:14:37;6.03;;;3.42;;
48627;SDS011;34424;52.234;6.500;2022-08-25T04:19:39;6.18;;;3.85;;
48627;SDS011;34424;52.234;6.500;2022-08-25T04:24:44;3.58;;;3.28;;
48627;SDS011;34424;52.234;6.500;2022-08-25T04:29:47;3.83;;;3.40;;
48627;SDS011;34424;52.234;6.500;2022-08-25T04:34:49;6.15;;;3.47;;
48627;SDS011;34424;52.234;6.500;2022-08-25T04:44:56;6.28;;;3.50;;
48627;SDS011;34424;52.234;6.500;2022-08-25T04:49:58;6.10;;;4.15;;
48627;SDS011;34424;52.234;6.500;2022-08-25T04:55:02;6.53;;;3.47;;
48627;SDS011;34424;52.234;6.500;2022-08-25T05:00:06;4.38;;;3.80;;
48627;SDS011;34424;52.234;6.500;2022-08-25T05:05:09;4.00;;;3.60;;
48627;SDS011;34424;52.234;6.500;2022-08-25T05:10:13;5.18;;;4.10;;
48627;SDS011;34424;52.234;6.500;2022-08-25T05:15:15;5.13;;;3.28;;
48627;SDS011;34424;52.234;6.500;2022-08-25T05:20:36;4.32;;;3.40;;
48627;SDS011;34424;52.234;6.500;2022-08-25T05:25:40;5.97;;;3.80;;
48627;SDS011;34424;52.234;6.500;2022-08-25T05:30:43;5.28;;;3.65;;
48627;SDS011;34424;52.234;6.500;2022-08-25T05:35:45;7.90;;;3.72;;
48627;SDS011;34424;52.234;6.500;2022-08-25T05:40:53;6.47;;;3.72;;
48627;SDS011;34424;52.234;6.500;2022-08-25T05:45:58;4.85;;;3.58;;
48627;SDS011;34424;52.234;6.500;2022-08-25T05:56:06;6.63;;;3.88;;
48627;SDS011;34424;52.234;6.500;2022-08-25T06:01:17;5.40;;;3.60;;
48627;SDS011;34424;52.234;6.500;2022-08-25T06:06:39;6.78;;;3.67;;
48627;SDS011;34424;52.234;6.500;2022-08-25T06:11:43;6.20;;;4.15;;
48627;SDS011;34424;52.234;6.500;2022-08-25T06:16:46;6.72;;;3.92;;
48627;SDS011;34424;52.234;6.500;2022-08-25T06:21:52;6.25;;;3.70;;
48627;SDS011;34424;52.234;6.500;2022-08-25T06:26:57;11.23;;;4.10;;
48627;SDS011;34424;52.234;6.500;2022-08-25T06:32:00;6.43;;;4.05;;
48627;SDS011;34424;52.234;6.500;2022-08-25T06:42:07;10.02;;;3.70;;
48627;SDS011;34424;52.234;6.500;2022-08-25T06:47:10;13.75;;;5.00;;
48627;SDS011;34424;52.234;6.500;2022-08-25T06:52:14;11.50;;;4.18;;
48627;SDS011;34424;52.234;6.500;2022-08-25T06:57:18;14.00;;;4.30;;
48627;SDS011;34424;52.234;6.500;2022-08-25T07:02:21;13.50;;;4.72;;
48627;SDS011;34424;52.234;6.500;2022-08-25T07:07:24;12.15;;;4.55;;
48627;SDS011;34424;52.234;6.500;2022-08-25T07:12:44;7.70;;;3.72;;
48627;SDS011;34424;52.234;6.500;2022-08-25T07:17:47;10.35;;;4.38;;
48627;SDS011;34424;52.234;6.500;2022-08-25T07:22:50;6.82;;;4.05;;
48627;SDS011;34424;52.234;6.500;2022-08-25T07:27:54;5.78;;;3.67;;
48627;SDS011;34424;52.234;6.500;2022-08-25T07:32:59;6.53;;;3.58;;
48627;SDS011;34424;52.234;6.500;2022-08-25T07:38:08;5.38;;;3.30;;
48627;SDS011;34424;52.234;6.500;2022-08-25T07:43:31;3.80;;;3.50;;
48627;SDS011;34424;52.234;6.500;2022-08-25T07:48:36;3.67;;;3.15;;
48627;SDS011;34424;52.234;6.500;2022-08-25T07:53:39;8.30;;;3.60;;
48627;SDS011;34424;52.234;6.500;2022-08-25T07:58:44;5.07;;;2.90;;
48627;SDS011;34424;52.234;6.500;2022-08-25T08:03:48;3.75;;;3.15;;
48627;SDS011;34424;52.234;6.500;2022-08-25T08:08:52;3.25;;;2.92;;
48627;SDS011;34424;52.234;6.500;2022-08-25T08:14:00;3.22;;;2.92;;
48627;SDS011;34424;52.234;6.500;2022-08-25T08:19:03;5.07;;;3.00;;
48627;SDS011;34424;52.234;6.500;2022-08-25T08:24:06;5.63;;;3.20;;
48627;SDS011;34424;52.234;6.500;2022-08-25T08:29:26;3.72;;;3.28;;
48627;SDS011;34424;52.234;6.500;2022-08-25T08:34:29;5.38;;;3.25;;
48627;SDS011;34424;52.234;6.500;2022-08-25T08:39:32;4.63;;;3.30;;
48627;SDS011;34424;52.234;6.500;2022-08-25T08:44:41;3.10;;;2.90;;
48627;SDS011;34424;52.234;6.500;2022-08-25T08:49:52;5.35;;;3.40;;
48627;SDS011;34424;52.234;6.500;2022-08-25T08:55:06;6.82;;;3.40;;
48627;SDS011;34424;52.234;6.500;2022-08-25T09:00:15;8.85;;;3.25;;
48627;SDS011;34424;52.234;6.500;2022-08-25T09:05:20;4.35;;;3.50;;
48627;SDS011;34424;52.234;6.500;2022-08-25T09:10:26;4.22;;;3.10;;
48627;SDS011;34424;52.234;6.500;2022-08-25T09:15:43;5.85;;;3.20;;
48627;SDS011;34424;52.234;6.500;2022-08-25T09:21:11;4.25;;;3.58;;
48627;SDS011;34424;52.234;6.500;2022-08-25T09:26:21;4.70;;;3.13;;
48627;SDS011;34424;52.234;6.500;2022-08-25T09:31:32;5.25;;;3.40;;
48627;SDS011;34424;52.234;6.500;2022-08-25T09:36:38;5.22;;;3.03;;
48627;SDS011;34424;52.234;6.500;2022-08-25T09:41:42;4.72;;;3.50;;
48627;SDS011;34424;52.234;6.500;2022-08-25T09:47:00;3.83;;;3.20;;
48627;SDS011;34424;52.234;6.500;2022-08-25T09:57:43;6.32;;;3.03;;
48627;SDS011;34424;52.234;6.500;2022-08-25T10:03:01;4.10;;;2.72;;
48627;SDS011;34424;52.234;6.500;2022-08-25T10:08:10;6.18;;;3.30;;
48627;SDS011;34424;52.234;6.500;2022-08-25T10:13:32;4.22;;;2.75;;
48627;SDS011;34424;52.234;6.500;2022-08-25T10:18:38;4.80;;;2.83;;
48627;SDS011;34424;52.234;6.500;2022-08-25T10:23:44;4.78;;;2.95;;
48627;SDS011;34424;52.234;6.500;2022-08-25T10:28:52;2.40;;;2.20;;
48627;SDS011;34424;52.234;6.500;2022-08-25T10:34:10;4.70;;;3.00;;
48627;SDS011;34424;52.234;6.500;2022-08-25T10:39:26;4.45;;;3.28;;
48627;SDS011;34424;52.234;6.500;2022-08-25T10:44:42;3.65;;;2.80;;
48627;SDS011;34424;52.234;6.500;2022-08-25T10:50:20;3.33;;;2.65;;
48627;SDS011;34424;52.234;6.500;2022-08-25T10:55:31;4.60;;;2.75;;
48627;SDS011;34424;52.234;6.500;2022-08-25T11:00:42;4.22;;;2.97;;
48627;SDS011;34424;52.234;6.500;2022-08-25T11:05:57;2.95;;;2.47;;
48627;SDS011;34424;52.234;6.500;2022-08-25T11:11:03;3.38;;;3.08;;
48627;SDS011;34424;52.234;6.500;2022-08-25T11:16:12;3.63;;;2.67;;
48627;SDS011;34424;52.234;6.500;2022-08-25T11:21:24;3.13;;;2.80;;
48627;SDS011;34424;52.234;6.500;2022-08-25T11:26:36;4.13;;;2.45;;
48627;SDS011;34424;52.234;6.500;2022-08-25T11:31:43;2.97;;;2.65;;
48627;SDS011;34424;52.234;6.500;2022-08-25T11:42:03;5.75;;;2.80;;
48627;SDS011;34424;52.234;6.500;2022-08-25T11:47:22;4.50;;;2.90;;
48627;SDS011;34424;52.234;6.500;2022-08-25T12:03:45;4.05;;;2.85;;
48627;SDS011;34424;52.234;6.500;2022-08-25T12:09:14;3.43;;;2.80;;
48627;SDS011;34424;52.234;6.500;2022-08-25T12:14:40;2.95;;;2.72;;
48627;SDS011;34424;52.234;6.500;2022-08-25T12:19:47;3.45;;;2.58;;
48627;SDS011;34424;52.234;6.500;2022-08-25T12:24:55;5.68;;;2.90;;
48627;SDS011;34424;52.234;6.500;2022-08-25T12:30:10;4.95;;;3.00;;
48627;SDS011;34424;52.234;6.500;2022-08-25T12:35:25;3.58;;;2.88;;
48627;SDS011;34424;52.234;6.500;2022-08-25T12:40:37;3.30;;;3.00;;
48627;SDS011;34424;52.234;6.500;2022-08-25T12:45:54;3.22;;;2.92;;
48627;SDS011;34424;52.234;6.500;2022-08-25T12:51:47;4.00;;;2.60;;
48627;SDS011;34424;52.234;6.500;2022-08-25T12:56:56;3.42;;;2.80;;
48627;SDS011;34424;52.234;6.500;2022-08-25T13:02:26;2.70;;;2.50;;
48627;SDS011;34424;52.234;6.500;2022-08-25T13:07:56;4.80;;;2.72;;
48627;SDS011;34424;52.234;6.500;2022-08-25T13:13:08;2.92;;;2.65;;
48627;SDS011;34424;52.234;6.500;2022-08-25T13:18:18;4.57;;;2.65;;
48627;SDS011;34424;52.234;6.500;2022-08-25T13:23:25;5.55;;;2.78;;
48627;SDS011;34424;52.234;6.500;2022-08-25T13:28:31;3.17;;;2.80;;
48627;SDS011;34424;52.234;6.500;2022-08-25T13:33:36;4.90;;;2.55;;
48627;SDS011;34424;52.234;6.500;2022-08-25T13:38:40;3.78;;;2.85;;
48627;SDS011;34424;52.234;6.500;2022-08-25T13:43:47;4.20;;;2.70;;
48627;SDS011;34424;52.234;6.500;2022-08-25T13:49:00;3.00;;;2.70;;
48627;SDS011;34424;52.234;6.500;2022-08-25T13:54:04;3.72;;;2.67;;
48627;SDS011;34424;52.234;6.500;2022-08-25T13:59:19;3.30;;;3.00;;
48627;SDS011;34424;52.234;6.500;2022-08-25T14:04:26;4.75;;;2.72;;
48627;SDS011;34424;52.234;6.500;2022-08-25T14:09:38;3.30;;;2.72;;
48627;SDS011;34424;52.234;6.500;2022-08-25T14:14:43;2.95;;;2.65;;
48627;SDS011;34424;52.234;6.500;2022-08-25T14:19:59;4.57;;;3.08;;
48627;SDS011;34424;52.234;6.500;2022-08-25T14:25:02;4.43;;;2.80;;
48627;SDS011;34424;52.234;6.500;2022-08-25T14:30:07;5.43;;;2.65;;
48627;SDS011;34424;52.234;6.500;2022-08-25T14:35:10;3.45;;;2.58;;
48627;SDS011;34424;52.234;6.500;2022-08-25T14:40:17;2.67;;;2.40;;
48627;SDS011;34424;52.234;6.500;2022-08-25T14:45:22;3.47;;;2.65;;
48627;SDS011;34424;52.234;6.500;2022-08-25T14:50:24;4.93;;;3.25;;
48627;SDS011;34424;52.234;6.500;2022-08-25T14:55:27;7.05;;;2.58;;
48627;SDS011;34424;52.234;6.500;2022-08-25T15:00:34;3.90;;;2.92;;
48627;SDS011;34424;52.234;6.500;2022-08-25T15:05:41;4.15;;;2.75;;
48627;SDS011;34424;52.234;6.500;2022-08-25T15:10:43;3.47;;;2.90;;
48627;SDS011;34424;52.234;6.500;2022-08-25T15:15:48;3.58;;;2.88;;
48627;SDS011;34424;52.234;6.500;2022-08-25T15:20:53;2.53;;;2.15;;
48627;SDS011;34424;52.234;6.500;2022-08-25T15:25:57;2.72;;;2.30;;
48627;SDS011;34424;52.234;6.500;2022-08-25T15:31:01;3.72;;;2.58;;
48627;SDS011;34424;52.234;6.500;2022-08-25T15:36:04;3.50;;;2.70;;
48627;SDS011;34424;52.234;6.500;2022-08-25T15:41:15;4.57;;;2.70;;
48627;SDS011;34424;52.234;6.500;2022-08-25T15:46:19;3.42;;;2.22;;
48627;SDS011;34424;52.234;6.500;2022-08-25T15:51:24;3.40;;;2.72;;
48627;SDS011;34424;52.234;6.500;2022-08-25T15:56:27;2.97;;;2.58;;
48627;SDS011;34424;52.234;6.500;2022-08-25T16:01:31;4.05;;;2.55;;
48627;SDS011;34424;52.234;6.500;2022-08-25T16:06:34;4.53;;;2.60;;
48627;SDS011;34424;52.234;6.500;2022-08-25T16:11:37;3.30;;;2.50;;
48627;SDS011;34424;52.234;6.500;2022-08-25T16:16:41;3.20;;;2.17;;
48627;SDS011;34424;52.234;6.500;2022-08-25T16:21:44;2.88;;;2.33;;
48627;SDS011;34424;52.234;6.500;2022-08-25T16:26:48;3.03;;;2.22;;
48627;SDS011;34424;52.234;6.500;2022-08-25T16:31:53;3.42;;;2.42;;
48627;SDS011;34424;52.234;6.500;2022-08-25T16:36:57;3.72;;;2.10;;
48627;SDS011;34424;52.234;6.500;2022-08-25T16:42:00;2.20;;;2.00;;
48627;SDS011;34424;52.234;6.500;2022-08-25T16:47:04;5.05;;;2.40;;
48627;SDS011;34424;52.234;6.500;2022-08-25T16:52:09;4.25;;;2.67;;
48627;SDS011;34424;52.234;6.500;2022-08-25T16:57:28;4.95;;;4.20;;
48627;SDS011;34424;52.234;6.500;2022-08-25T17:02:32;3.25;;;2.70;;
48627;SDS011;34424;52.234;6.500;2022-08-25T17:07:35;2.70;;;2.50;;
48627;SDS011;34424;52.234;6.500;2022-08-25T17:12:38;3.13;;;2.03;;
48627;SDS011;34424;52.234;6.500;2022-08-25T17:17:42;2.35;;;2.13;;
48627;SDS011;34424;52.234;6.500;2022-08-25T17:22:45;3.03;;;2.72;;
48627;SDS011;34424;52.234;6.500;2022-08-25T17:27:47;4.45;;;2.80;;
48627;SDS011;34424;52.234;6.500;2022-08-25T17:32:51;2.97;;;2.45;;
48627;SDS011;34424;52.234;6.500;2022-08-25T17:37:54;3.85;;;3.13;;
48627;SDS011;34424;52.234;6.500;2022-08-25T17:42:57;4.88;;;2.85;;
48627;SDS011;34424;52.234;6.500;2022-08-25T17:48:01;4.40;;;2.40;;
48627;SDS011;34424;52.234;6.500;2022-08-25T17:53:04;2.63;;;2.42;;
48627;SDS011;34424;52.234;6.500;2022-08-25T17:58:06;2.78;;;2.58;;
48627;SDS011;34424;52.234;6.500;2022-08-25T18:03:11;2.58;;;2.38;;
48627;SDS011;34424;52.234;6.500;2022-08-25T18:08:13;5.30;;;3.22;;
48627;SDS011;34424;52.234;6.500;2022-08-25T18:13:19;6.78;;;3.30;;
48627;SDS011;34424;52.234;6.500;2022-08-25T18:18:24;6.38;;;3.13;;
48627;SDS011;34424;52.234;6.500;2022-08-25T18:23:27;4.78;;;3.17;;
48627;SDS011;34424;52.234;6.500;2022-08-25T18:28:29;3.80;;;2.95;;
48627;SDS011;34424;52.234;6.500;2022-08-25T18:33:35;3.55;;;2.97;;
48627;SDS011;34424;52.234;6.500;2022-08-25T18:38:41;4.13;;;3.40;;
48627;SDS011;34424;52.234;6.500;2022-08-25T18:44:02;5.45;;;3.30;;
48627;SDS011;34424;52.234;6.500;2022-08-25T18:49:07;4.93;;;3.20;;
48627;SDS011;34424;52.234;6.500;2022-08-25T18:54:09;3.85;;;3.10;;
48627;SDS011;34424;52.234;6.500;2022-08-25T18:59:24;4.05;;;3.63;;
48627;SDS011;34424;52.234;6.500;2022-08-25T19:04:28;7.63;;;3.45;;
48627;SDS011;34424;52.234;6.500;2022-08-25T19:09:32;3.78;;;3.38;;
48627;SDS011;34424;52.234;6.500;2022-08-25T19:14:34;4.15;;;3.05;;
48627;SDS011;34424;52.234;6.500;2022-08-25T19:19:39;5.28;;;3.63;;
48627;SDS011;34424;52.234;6.500;2022-08-25T19:24:42;4.55;;;3.80;;
48627;SDS011;34424;52.234;6.500;2022-08-25T19:29:45;7.15;;;3.80;;
48627;SDS011;34424;52.234;6.500;2022-08-25T19:34:49;5.32;;;3.33;;
48627;SDS011;34424;52.234;6.500;2022-08-25T19:39:55;7.93;;;3.67;;
48627;SDS011;34424;52.234;6.500;2022-08-25T19:44:58;7.65;;;4.10;;
48627;SDS011;34424;52.234;6.500;2022-08-25T19:55:05;6.30;;;4.22;;
48627;SDS011;34424;52.234;6.500;2022-08-25T20:00:10;6.57;;;4.82;;
48627;SDS011;34424;52.234;6.500;2022-08-25T20:05:16;6.15;;;4.43;;
48627;SDS011;34424;52.234;6.500;2022-08-25T20:10:25;8.75;;;5.05;;
48627;SDS011;34424;52.234;6.500;2022-08-25T20:15:31;4.57;;;4.07;;
48627;SDS011;34424;52.234;6.500;2022-08-25T20:20:40;5.38;;;4.30;;
48627;SDS011;34424;52.234;6.500;2022-08-25T20:25:43;5.78;;;4.40;;
48627;SDS011;34424;52.234;6.500;2022-08-25T20:30:46;5.68;;;5.05;;
48627;SDS011;34424;52.234;6.500;2022-08-25T20:40:53;7.00;;;4.47;;
48627;SDS011;34424;52.234;6.500;2022-08-25T20:45:58;9.50;;;5.00;;
48627;SDS011;34424;52.234;6.500;2022-08-25T20:51:03;9.60;;;4.55;;
48627;SDS011;34424;52.234;6.500;2022-08-25T20:56:07;8.10;;;5.18;;
48627;SDS011;34424;52.234;6.500;2022-08-25T21:01:13;9.75;;;4.40;;
48627;SDS011;34424;52.234;6.500;2022-08-25T21:06:24;6.18;;;4.35;;
48627;SDS011;34424;52.234;6.500;2022-08-25T21:11:27;7.57;;;5.15;;
48627;SDS011;34424;52.234;6.500;2022-08-25T21:16:30;5.50;;;3.90;;
48627;SDS011;34424;52.234;6.500;2022-08-25T21:21:36;9.07;;;4.90;;
48627;SDS011;34424;52.234;6.500;2022-08-25T21:26:40;6.43;;;4.78;;
48627;SDS011;34424;52.234;6.500;2022-08-25T21:31:49;5.90;;;5.00;;
48627;SDS011;34424;52.234;6.500;2022-08-25T21:36:53;5.60;;;5.03;;
48627;SDS011;34424;52.234;6.500;2022-08-25T21:41:57;5.75;;;4.30;;
48627;SDS011;34424;52.234;6.500;2022-08-25T21:47:01;7.85;;;5.03;;
48627;SDS011;34424;52.234;6.500;2022-08-25T21:52:05;6.85;;;4.82;;
48627;SDS011;34424;52.234;6.500;2022-08-25T21:57:08;12.95;;;7.65;;
48627;SDS011;34424;52.234;6.500;2022-08-25T22:02:11;8.93;;;6.65;;
48627;SDS011;34424;52.234;6.500;2022-08-25T22:07:15;17.73;;;14.02;;
48627;SDS011;34424;52.234;6.500;2022-08-25T22:12:18;28.17;;;22.30;;
48627;SDS011;34424;52.234;6.500;2022-08-25T22:17:20;34.30;;;29.52;;
48627;SDS011;34424;52.234;6.500;2022-08-25T22:22:26;39.70;;;33.00;;
48627;SDS011;34424;52.234;6.500;2022-08-25T22:27:28;40.67;;;35.47;;
48627;SDS011;34424;52.234;6.500;2022-08-25T22:32:31;46.67;;;37.42;;
48627;SDS011;34424;52.234;6.500;2022-08-25T22:37:35;52.70;;;42.03;;
48627;SDS011;34424;52.234;6.500;2022-08-25T22:42:40;61.22;;;45.33;;
48627;SDS011;34424;52.234;6.500;2022-08-25T22:47:48;55.00;;;44.13;;
48627;SDS011;34424;52.234;6.500;2022-08-25T22:52:54;59.78;;;46.58;;
48627;SDS011;34424;52.234;6.500;2022-08-25T22:57:56;54.05;;;47.30;;
48627;SDS011;34424;52.234;6.500;2022-08-25T23:03:00;62.53;;;47.97;;
48627;SDS011;34424;52.234;6.500;2022-08-25T23:08:08;56.28;;;47.95;;
48627;SDS011;34424;52.234;6.500;2022-08-25T23:13:10;61.63;;;50.80;;
48627;SDS011;34424;52.234;6.500;2022-08-25T23:18:33;57.55;;;48.42;;
48627;SDS011;34424;52.234;6.500;2022-08-25T23:23:41;62.88;;;51.47;;
48627;SDS011;34424;52.234;6.500;2022-08-25T23:28:44;62.13;;;52.60;;
48627;SDS011;34424;52.234;6.500;2022-08-25T23:33:46;63.88;;;53.00;;
48627;SDS011;34424;52.234;6.500;2022-08-25T23:38:51;66.10;;;52.30;;
48627;SDS011;34424;52.234;6.500;2022-08-25T23:43:54;65.82;;;52.92;;
48627;SDS011;34424;52.234;6.500;2022-08-25T23:48:57;66.32;;;54.05;;
48627;SDS011;34424;52.234;6.500;2022-08-25T23:59:05;73.82;;;54.63;;
